sensor_id;sensor_type;location;lat;lon;timestamp;pressure;altitude;pressure_sealevel;temperature;humidity
58686;BME280;44465;53.206;-6.106;2023-01-27T00:01:55;103441.06;;;19.95;50.67
58686;BME280;44465;53.206;-6.106;2023-01-27T00:04:22;103432.19;;;19.91;51.08
58686;BME280;44465;53.206;-6.106;2023-01-27T00:06:48;103416.16;;;19.83;50.59
58686;BME280;44465;53.206;-6.106;2023-01-27T00:09:14;103402.88;;;19.73;50.82
58686;BME280;44465;53.206;-6.106;2023-01-27T00:11:39;103405.56;;;19.71;50.58
58686;BME280;44465;53.206;-6.106;2023-01-27T00:14:23;103426.84;;;19.88;51.02
58686;BME280;44465;53.206;-6.106;2023-01-27T00:16:49;103393.13;;;19.67;51.00
58686;BME280;44465;53.206;-6.106;2023-01-27T00:19:15;103403.72;;;19.76;50.82
58686;BME280;44465;53.206;-6.106;2023-01-27T00:21:45;103419.75;;;19.86;50.57
58686;BME280;44465;53.206;-6.106;2023-01-27T00:24:29;103371.78;;;19.62;50.52
58686;BME280;44465;53.206;-6.106;2023-01-27T00:27:04;103401.06;;;19.76;50.68
58686;BME280;44465;53.206;-6.106;2023-01-27T00:29:30;103376.19;;;19.68;50.93
58686;BME280;44465;53.206;-6.106;2023-01-27T00:31:58;103393.97;;;19.72;50.83
58686;BME280;44465;53.206;-6.106;2023-01-27T00:34:42;103484.47;;;20.28;50.78
58686;BME280;44465;53.206;-6.106;2023-01-27T00:37:08;103415.22;;;19.91;50.77
58686;BME280;44465;53.206;-6.106;2023-01-27T00:39:33;103437.41;;;20.05;50.36
58686;BME280;44465;53.206;-6.106;2023-01-27T00:42:00;103389.44;;;19.80;50.59
58686;BME280;44465;53.206;-6.106;2023-01-27T00:44:25;103355.69;;;19.67;50.63
58686;BME280;44465;53.206;-6.106;2023-01-27T00:46:51;103377.88;;;19.77;50.62
58686;BME280;44465;53.206;-6.106;2023-01-27T00:49:16;103389.44;;;19.87;50.59
58686;BME280;44465;53.206;-6.106;2023-01-27T00:51:43;103341.47;;;19.65;50.29
58686;BME280;44465;53.206;-6.106;2023-01-27T00:54:08;103338.75;;;19.68;50.43
58686;BME280;44465;53.206;-6.106;2023-01-27T00:56:34;103331.72;;;19.59;50.33
58686;BME280;44465;53.206;-6.106;2023-01-27T00:59:00;103380.47;;;19.88;50.20
58686;BME280;44465;53.206;-6.106;2023-01-27T01:01:26;103397.34;;;19.97;50.42
58686;BME280;44465;53.206;-6.106;2023-01-27T01:03:52;103339.72;;;19.61;50.40
58686;BME280;44465;53.206;-6.106;2023-01-27T01:06:18;103368.94;;;19.81;50.55
58686;BME280;44465;53.206;-6.106;2023-01-27T01:08:47;103360.03;;;19.80;50.25
58686;BME280;44465;53.206;-6.106;2023-01-27T01:11:15;103431.94;;;20.13;50.38
58686;BME280;44465;53.206;-6.106;2023-01-27T01:13:41;103345.00;;;19.67;49.94
58686;BME280;44465;53.206;-6.106;2023-01-27T01:16:19;103388.44;;;19.95;50.25
58686;BME280;44465;53.206;-6.106;2023-01-27T01:18:45;103319.25;;;19.57;50.31
58686;BME280;44465;53.206;-6.106;2023-01-27T01:21:11;103425.63;;;20.22;50.43
58686;BME280;44465;53.206;-6.106;2023-01-27T01:23:38;103308.56;;;19.58;50.30
58686;BME280;44465;53.206;-6.106;2023-01-27T01:26:04;103332.53;;;19.66;50.00
58686;BME280;44465;53.206;-6.106;2023-01-27T01:28:30;103351.97;;;19.85;50.25
58686;BME280;44465;53.206;-6.106;2023-01-27T01:31:02;103348.44;;;19.78;50.21
58686;BME280;44465;53.206;-6.106;2023-01-27T01:33:28;103366.19;;;19.92;50.04
58686;BME280;44465;53.206;-6.106;2023-01-27T01:35:54;103363.53;;;19.92;50.01
58686;BME280;44465;53.206;-6.106;2023-01-27T01:38:19;103345.78;;;19.80;50.29
58686;BME280;44465;53.206;-6.106;2023-01-27T01:40:46;103320.94;;;19.68;50.34
58686;BME280;44465;53.206;-6.106;2023-01-27T01:43:15;103349.31;;;19.83;50.24
58686;BME280;44465;53.206;-6.106;2023-01-27T01:48:12;103346.66;;;19.87;49.86
58686;BME280;44465;53.206;-6.106;2023-01-27T01:50:39;103308.47;;;19.66;50.16
58686;BME280;44465;53.206;-6.106;2023-01-27T01:53:09;103351.94;;;19.90;50.12
58686;BME280;44465;53.206;-6.106;2023-01-27T01:55:36;103289.91;;;19.53;50.10
58686;BME280;44465;53.206;-6.106;2023-01-27T01:58:05;103296.06;;;19.60;50.14
58686;BME280;44465;53.206;-6.106;2023-01-27T02:00:33;103320.91;;;19.73;50.09
58686;BME280;44465;53.206;-6.106;2023-01-27T02:03:00;103365.28;;;19.96;49.92
58686;BME280;44465;53.206;-6.106;2023-01-27T02:05:29;103348.34;;;19.94;49.95
58686;BME280;44465;53.206;-6.106;2023-01-27T02:08:02;103347.50;;;19.84;49.90
58686;BME280;44465;53.206;-6.106;2023-01-27T02:10:31;103389.13;;;20.18;50.22
58686;BME280;44465;53.206;-6.106;2023-01-27T02:12:57;103312.91;;;19.70;49.94
58686;BME280;44465;53.206;-6.106;2023-01-27T02:15:23;103271.22;;;19.47;49.86
58686;BME280;44465;53.206;-6.106;2023-01-27T02:17:50;103316.44;;;19.75;49.92
58686;BME280;44465;53.206;-6.106;2023-01-27T02:26:07;103296.84;;;19.70;50.09
58686;BME280;44465;53.206;-6.106;2023-01-27T02:28:33;103322.56;;;19.83;50.04
58686;BME280;44465;53.206;-6.106;2023-01-27T02:30:59;103292.44;;;19.66;49.75
58686;BME280;44465;53.206;-6.106;2023-01-27T02:33:25;103261.41;;;19.49;49.90
58686;BME280;44465;53.206;-6.106;2023-01-27T02:36:11;103288.88;;;19.65;49.90
58686;BME280;44465;53.206;-6.106;2023-01-27T02:38:49;103295.06;;;19.69;49.99
58686;BME280;44465;53.206;-6.106;2023-01-27T02:43:43;103280.94;;;19.58;49.94
58686;BME280;44465;53.206;-6.106;2023-01-27T02:46:09;103263.19;;;19.50;49.97
58686;BME280;44465;53.206;-6.106;2023-01-27T02:48:35;103275.59;;;19.58;49.92
58686;BME280;44465;53.206;-6.106;2023-01-27T02:51:01;103306.56;;;19.80;50.22
58686;BME280;44465;53.206;-6.106;2023-01-27T02:53:29;103307.44;;;19.86;50.01
58686;BME280;44465;53.206;-6.106;2023-01-27T02:55:55;103264.78;;;19.67;50.07
58686;BME280;44465;53.206;-6.106;2023-01-27T02:58:21;103299.44;;;19.79;50.07
58686;BME280;44465;53.206;-6.106;2023-01-27T03:00:51;103358.75;;;20.19;49.95
58686;BME280;44465;53.206;-6.106;2023-01-27T03:03:17;103312.72;;;19.92;49.85
58686;BME280;44465;53.206;-6.106;2023-01-27T03:05:43;103263.03;;;19.66;49.82
58686;BME280;44465;53.206;-6.106;2023-01-27T03:08:09;103261.31;;;19.62;49.86
58686;BME280;44465;53.206;-6.106;2023-01-27T03:10:35;103292.34;;;19.75;49.96
58686;BME280;44465;53.206;-6.106;2023-01-27T03:13:01;103256.88;;;19.59;50.14
58686;BME280;44465;53.206;-6.106;2023-01-27T03:15:27;103297.69;;;19.77;49.99
58686;BME280;44465;53.206;-6.106;2023-01-27T03:18:11;103283.44;;;19.75;50.08
58686;BME280;44465;53.206;-6.106;2023-01-27T03:20:39;103241.84;;;19.47;49.87
58686;BME280;44465;53.206;-6.106;2023-01-27T03:23:06;103244.47;;;19.53;49.85
58686;BME280;44465;53.206;-6.106;2023-01-27T03:25:33;103244.50;;;19.49;49.72
58686;BME280;44465;53.206;-6.106;2023-01-27T03:27:59;103224.97;;;19.41;49.67
58686;BME280;44465;53.206;-6.106;2023-01-27T03:30:46;103243.59;;;19.51;49.68
58686;BME280;44465;53.206;-6.106;2023-01-27T03:33:17;103288.72;;;19.79;49.75
58686;BME280;44465;53.206;-6.106;2023-01-27T03:35:52;103258.63;;;19.62;49.94
58686;BME280;44465;53.206;-6.106;2023-01-27T03:38:43;103252.44;;;19.55;49.96
58686;BME280;44465;53.206;-6.106;2023-01-27T03:41:27;103233.84;;;19.46;49.83
58686;BME280;44465;53.206;-6.106;2023-01-27T03:44:12;103255.94;;;19.63;49.57
58686;BME280;44465;53.206;-6.106;2023-01-27T03:46:56;103274.50;;;19.77;49.81
58686;BME280;44465;53.206;-6.106;2023-01-27T03:49:22;103305.59;;;19.91;50.00
58686;BME280;44465;53.206;-6.106;2023-01-27T03:51:47;103256.78;;;19.68;49.79
58686;BME280;44465;53.206;-6.106;2023-01-27T03:54:13;103270.91;;;19.80;49.70
58686;BME280;44465;53.206;-6.106;2023-01-27T03:56:39;103235.56;;;19.55;49.76
58686;BME280;44465;53.206;-6.106;2023-01-27T03:59:04;103232.88;;;19.55;49.82
58686;BME280;44465;53.206;-6.106;2023-01-27T04:01:30;103277.16;;;19.77;50.03
58686;BME280;44465;53.206;-6.106;2023-01-27T04:03:56;103223.16;;;19.46;50.24
58686;BME280;44465;53.206;-6.106;2023-01-27T04:06:40;103259.47;;;19.68;49.67
58686;BME280;44465;53.206;-6.106;2023-01-27T04:09:34;103282.50;;;19.80;49.87
58686;BME280;44465;53.206;-6.106;2023-01-27T04:12:03;103256.75;;;19.70;49.81
58686;BME280;44465;53.206;-6.106;2023-01-27T04:14:37;103258.56;;;19.68;49.67
58686;BME280;44465;53.206;-6.106;2023-01-27T04:17:14;103269.19;;;19.74;49.94
58686;BME280;44465;53.206;-6.106;2023-01-27T04:19:40;103220.47;;;19.47;49.85
58686;BME280;44465;53.206;-6.106;2023-01-27T04:22:06;103302.00;;;19.95;49.87
58686;BME280;44465;53.206;-6.106;2023-01-27T04:24:33;103285.09;;;19.85;49.84
58686;BME280;44465;53.206;-6.106;2023-01-27T04:27:02;103267.34;;;19.79;49.60
58686;BME280;44465;53.206;-6.106;2023-01-27T04:29:30;103210.66;;;19.48;49.79
58686;BME280;44465;53.206;-6.106;2023-01-27T04:31:57;103212.41;;;19.50;49.57
58686;BME280;44465;53.206;-6.106;2023-01-27T04:34:24;103215.06;;;19.52;49.98
58686;BME280;44465;53.206;-6.106;2023-01-27T04:36:50;103236.28;;;19.71;49.81
58686;BME280;44465;53.206;-6.106;2023-01-27T04:39:16;103252.28;;;19.72;49.86
58686;BME280;44465;53.206;-6.106;2023-01-27T04:41:43;103257.53;;;19.81;49.94
58686;BME280;44465;53.206;-6.106;2023-01-27T04:44:10;103205.28;;;19.49;49.57
58686;BME280;44465;53.206;-6.106;2023-01-27T04:46:36;103215.00;;;19.57;49.65
58686;BME280;44465;53.206;-6.106;2023-01-27T04:49:03;103272.63;;;19.90;49.58
58686;BME280;44465;53.206;-6.106;2023-01-27T04:51:35;103234.47;;;19.71;49.83
58686;BME280;44465;53.206;-6.106;2023-01-27T04:54:01;103313.34;;;20.14;49.77
58686;BME280;44465;53.206;-6.106;2023-01-27T04:56:33;103220.31;;;19.63;49.98
58686;BME280;44465;53.206;-6.106;2023-01-27T04:59:02;103219.50;;;19.55;50.05
58686;BME280;44465;53.206;-6.106;2023-01-27T05:01:28;103211.53;;;19.51;49.86
58686;BME280;44465;53.206;-6.106;2023-01-27T05:03:54;103215.00;;;19.57;49.94
58686;BME280;44465;53.206;-6.106;2023-01-27T05:06:20;103209.72;;;19.53;49.55
58686;BME280;44465;53.206;-6.106;2023-01-27T05:08:47;103229.19;;;19.65;49.74
58686;BME280;44465;53.206;-6.106;2023-01-27T05:11:13;103231.03;;;19.60;49.88
58686;BME280;44465;53.206;-6.106;2023-01-27T05:13:39;103237.22;;;19.65;49.84
58686;BME280;44465;53.206;-6.106;2023-01-27T05:16:17;103248.72;;;19.73;49.69
58686;BME280;44465;53.206;-6.106;2023-01-27T05:18:45;103261.09;;;19.80;49.87
58686;BME280;44465;53.206;-6.106;2023-01-27T05:21:13;103230.94;;;19.66;49.86
58686;BME280;44465;53.206;-6.106;2023-01-27T05:23:39;103254.06;;;19.73;49.61
58686;BME280;44465;53.206;-6.106;2023-01-27T05:26:17;103222.22;;;19.48;49.77
58686;BME280;44465;53.206;-6.106;2023-01-27T05:28:44;103257.63;;;19.72;49.65
58686;BME280;44465;53.206;-6.106;2023-01-27T05:31:17;103327.63;;;20.14;49.68
58686;BME280;44465;53.206;-6.106;2023-01-27T05:33:44;103210.69;;;19.45;49.82
58686;BME280;44465;53.206;-6.106;2023-01-27T05:36:13;103278.91;;;19.81;49.65
58686;BME280;44465;53.206;-6.106;2023-01-27T05:38:39;103231.13;;;19.50;49.69
58686;BME280;44465;53.206;-6.106;2023-01-27T05:41:07;103264.69;;;19.76;49.77
58686;BME280;44465;53.206;-6.106;2023-01-27T05:43:35;103263.84;;;19.73;49.86
58686;BME280;44465;53.206;-6.106;2023-01-27T05:48:28;103233.78;;;19.52;49.83
58686;BME280;44465;53.206;-6.106;2023-01-27T05:50:56;103254.09;;;19.67;49.72
58686;BME280;44465;53.206;-6.106;2023-01-27T05:53:22;103333.94;;;20.06;50.01
58686;BME280;44465;53.206;-6.106;2023-01-27T05:55:49;103232.00;;;19.51;49.94
58686;BME280;44465;53.206;-6.106;2023-01-27T05:58:15;103231.09;;;19.53;49.69
58686;BME280;44465;53.206;-6.106;2023-01-27T06:00:41;103220.44;;;19.50;49.89
58686;BME280;44465;53.206;-6.106;2023-01-27T06:03:08;103268.31;;;19.75;49.83
58686;BME280;44465;53.206;-6.106;2023-01-27T06:05:34;103235.53;;;19.53;49.82
58686;BME280;44465;53.206;-6.106;2023-01-27T06:07:59;103305.56;;;19.94;49.64
58686;BME280;44465;53.206;-6.106;2023-01-27T06:10:25;103265.63;;;19.75;49.67
58686;BME280;44465;53.206;-6.106;2023-01-27T06:12:51;103262.94;;;19.74;49.70
58686;BME280;44465;53.206;-6.106;2023-01-27T06:15:17;103254.94;;;19.74;49.58
58686;BME280;44465;53.206;-6.106;2023-01-27T06:17:42;103265.63;;;19.74;49.85
58686;BME280;44465;53.206;-6.106;2023-01-27T06:20:09;103278.88;;;19.88;49.62
58686;BME280;44465;53.206;-6.106;2023-01-27T06:22:34;103264.69;;;19.76;49.70
58686;BME280;44465;53.206;-6.106;2023-01-27T06:25:00;103235.56;;;19.51;49.70
58686;BME280;44465;53.206;-6.106;2023-01-27T06:27:26;103259.44;;;19.70;49.49
58686;BME280;44465;53.206;-6.106;2023-01-27T06:29:52;103224.00;;;19.49;49.70
58686;BME280;44465;53.206;-6.106;2023-01-27T06:32:21;103245.25;;;19.65;49.56
58686;BME280;44465;53.206;-6.106;2023-01-27T06:34:47;103223.13;;;19.49;49.75
58686;BME280;44465;53.206;-6.106;2023-01-27T06:37:13;103307.25;;;20.01;49.51
58686;BME280;44465;53.206;-6.106;2023-01-27T06:39:39;103330.28;;;20.13;49.66
58686;BME280;44465;53.206;-6.106;2023-01-27T06:42:05;103203.63;;;19.39;50.01
58686;BME280;44465;53.206;-6.106;2023-01-27T06:44:34;103303.78;;;19.93;49.70
58686;BME280;44465;53.206;-6.106;2023-01-27T06:47:05;103305.53;;;19.97;49.56
58686;BME280;44465;53.206;-6.106;2023-01-27T06:49:31;103264.69;;;19.76;49.58
58686;BME280;44465;53.206;-6.106;2023-01-27T06:51:56;103239.91;;;19.62;50.13
58686;BME280;44465;53.206;-6.106;2023-01-27T06:54:25;103246.97;;;19.69;49.37
58686;BME280;44465;53.206;-6.106;2023-01-27T06:56:50;103321.41;;;20.12;49.79
58686;BME280;44465;53.206;-6.106;2023-01-27T06:59:16;103239.03;;;19.63;49.48
58686;BME280;44465;53.206;-6.106;2023-01-27T07:01:42;103242.56;;;19.65;49.66
58686;BME280;44465;53.206;-6.106;2023-01-27T07:04:08;103296.59;;;19.98;49.45
58686;BME280;44465;53.206;-6.106;2023-01-27T07:06:34;103246.97;;;19.66;49.48
58686;BME280;44465;53.206;-6.106;2023-01-27T07:08:59;103213.38;;;19.45;49.75
58686;BME280;44465;53.206;-6.106;2023-01-27T07:11:25;103245.19;;;19.68;49.61
58686;BME280;44465;53.206;-6.106;2023-01-27T07:13:51;103258.50;;;19.74;49.68
58686;BME280;44465;53.206;-6.106;2023-01-27T07:16:16;103245.25;;;19.62;49.69
58686;BME280;44465;53.206;-6.106;2023-01-27T07:18:42;103243.50;;;19.61;49.41
58686;BME280;44465;53.206;-6.106;2023-01-27T07:21:08;103268.31;;;19.75;49.75
58686;BME280;44465;53.206;-6.106;2023-01-27T07:23:34;103221.34;;;19.46;49.45
58686;BME280;44465;53.206;-6.106;2023-01-27T07:26:01;103219.59;;;19.47;49.88
58686;BME280;44465;53.206;-6.106;2023-01-27T07:28:27;103235.53;;;19.56;49.88
58686;BME280;44465;53.206;-6.106;2023-01-27T07:30:53;103229.31;;;19.52;49.75
58686;BME280;44465;53.206;-6.106;2023-01-27T07:33:18;103216.03;;;19.45;49.75
58686;BME280;44465;53.206;-6.106;2023-01-27T07:35:47;103259.50;;;19.64;49.56
58686;BME280;44465;53.206;-6.106;2023-01-27T07:38:14;103285.22;;;19.73;49.64
58686;BME280;44465;53.206;-6.106;2023-01-27T07:40:40;103277.31;;;19.65;49.74
58686;BME280;44465;53.206;-6.106;2023-01-27T07:43:06;103266.66;;;19.59;49.54
58686;BME280;44465;53.206;-6.106;2023-01-27T07:45:33;103257.81;;;19.53;49.39
58686;BME280;44465;53.206;-6.106;2023-01-27T07:48:00;103319.91;;;19.87;49.60
58686;BME280;44465;53.206;-6.106;2023-01-27T07:50:26;103279.13;;;19.60;49.64
58686;BME280;44465;53.206;-6.106;2023-01-27T07:52:52;103245.41;;;19.46;49.46
58686;BME280;44465;53.206;-6.106;2023-01-27T07:55:17;103284.41;;;19.66;49.34
58686;BME280;44465;53.206;-6.106;2023-01-27T07:57:43;103293.22;;;19.76;49.63
58686;BME280;44465;53.206;-6.106;2023-01-27T08:00:09;103255.19;;;19.49;49.65
58686;BME280;44465;53.206;-6.106;2023-01-27T08:02:42;103343.78;;;20.04;49.30
58686;BME280;44465;53.206;-6.106;2023-01-27T08:05:08;103245.47;;;19.43;49.67
58686;BME280;44465;53.206;-6.106;2023-01-27T08:07:36;103248.06;;;19.46;49.46
58686;BME280;44465;53.206;-6.106;2023-01-27T08:10:02;103256.06;;;19.49;49.53
58686;BME280;44465;53.206;-6.106;2023-01-27T08:12:31;103269.38;;;19.54;49.68
58686;BME280;44465;53.206;-6.106;2023-01-27T08:14:59;103246.41;;;19.37;49.85
58686;BME280;44465;53.206;-6.106;2023-01-27T08:17:25;103370.53;;;20.02;49.78
58686;BME280;44465;53.206;-6.106;2023-01-27T08:19:54;103266.84;;;19.43;49.57
58686;BME280;44465;53.206;-6.106;2023-01-27T08:22:19;103250.84;;;19.38;49.54
58686;BME280;44465;53.206;-6.106;2023-01-27T08:24:46;103288.06;;;19.60;49.56
58686;BME280;44465;53.206;-6.106;2023-01-27T08:27:11;103312.91;;;19.70;49.64
58686;BME280;44465;53.206;-6.106;2023-01-27T08:29:39;103308.44;;;19.72;49.66
58686;BME280;44465;53.206;-6.106;2023-01-27T08:32:05;103348.41;;;19.88;50.09
58686;BME280;44465;53.206;-6.106;2023-01-27T08:34:30;103332.41;;;19.78;50.16
58686;BME280;44465;53.206;-6.106;2023-01-27T08:36:59;103283.69;;;19.50;50.25
58686;BME280;44465;53.206;-6.106;2023-01-27T08:39:30;103287.22;;;19.53;50.17
58686;BME280;44465;53.206;-6.106;2023-01-27T08:41:56;103302.28;;;19.64;49.75
58686;BME280;44465;53.206;-6.106;2023-01-27T08:44:22;103327.94;;;19.80;50.09
58686;BME280;44465;53.206;-6.106;2023-01-27T08:46:49;103292.53;;;19.55;50.05
58686;BME280;44465;53.206;-6.106;2023-01-27T08:49:14;103300.53;;;19.60;49.85
58686;BME280;44465;53.206;-6.106;2023-01-27T08:51:41;103280.97;;;19.55;49.67
58686;BME280;44465;53.206;-6.106;2023-01-27T08:54:07;103279.22;;;19.50;49.71
58686;BME280;44465;53.206;-6.106;2023-01-27T08:56:33;103290.78;;;19.51;50.10
58686;BME280;44465;53.206;-6.106;2023-01-27T08:58:59;103340.47;;;19.74;49.60
58686;BME280;44465;53.206;-6.106;2023-01-27T09:01:25;103303.25;;;19.52;49.69
58686;BME280;44465;53.206;-6.106;2023-01-27T09:03:54;103327.22;;;19.63;49.84
58686;BME280;44465;53.206;-6.106;2023-01-27T09:06:20;103348.50;;;19.75;49.80
58686;BME280;44465;53.206;-6.106;2023-01-27T09:08:46;103303.28;;;19.50;49.99
58686;BME280;44465;53.206;-6.106;2023-01-27T09:11:31;103345.81;;;19.74;49.56
58686;BME280;44465;53.206;-6.106;2023-01-27T09:13:59;103361.78;;;19.83;49.64
58686;BME280;44465;53.206;-6.106;2023-01-27T09:16:25;103361.84;;;19.77;49.68
58686;BME280;44465;53.206;-6.106;2023-01-27T09:18:51;103296.22;;;19.45;49.53
58686;BME280;44465;53.206;-6.106;2023-01-27T09:21:16;103415.91;;;20.14;49.41
58686;BME280;44465;53.206;-6.106;2023-01-27T09:23:42;103348.50;;;19.74;49.99
58686;BME280;44465;53.206;-6.106;2023-01-27T09:26:07;103360.91;;;19.82;49.88
58686;BME280;44465;53.206;-6.106;2023-01-27T09:28:33;103333.44;;;19.63;49.79
58686;BME280;44465;53.206;-6.106;2023-01-27T09:30:59;103348.50;;;19.75;49.83
58686;BME280;44465;53.206;-6.106;2023-01-27T09:33:25;103308.50;;;19.64;49.69
58686;BME280;44465;53.206;-6.106;2023-01-27T09:35:58;103311.09;;;19.72;49.75
58686;BME280;44465;53.206;-6.106;2023-01-27T09:38:27;103387.34;;;20.17;49.90
58686;BME280;44465;53.206;-6.106;2023-01-27T09:44:30;103304.00;;;19.68;50.03
58686;BME280;44465;53.206;-6.106;2023-01-27T10:11:51;103354.31;;;20.19;49.92
58686;BME280;44465;53.206;-6.106;2023-01-27T10:22:33;103356.97;;;20.21;49.79
58686;BME280;44465;53.206;-6.106;2023-01-27T10:25:23;103326.88;;;20.00;49.92
58686;BME280;44465;53.206;-6.106;2023-01-27T10:27:55;103265.69;;;19.66;49.66
58686;BME280;44465;53.206;-6.106;2023-01-27T10:30:28;103282.50;;;19.77;49.90
58686;BME280;44465;53.206;-6.106;2023-01-27T10:33:16;103302.03;;;19.89;49.90
58686;BME280;44465;53.206;-6.106;2023-01-27T10:35:59;103258.56;;;19.68;49.96
58686;BME280;44465;53.206;-6.106;2023-01-27T10:38:43;103352.53;;;20.21;49.64
58686;BME280;44465;53.206;-6.106;2023-01-27T10:46:38;103345.34;;;20.25;49.71
58686;BME280;44465;53.206;-6.106;2023-01-27T10:49:22;103247.88;;;19.66;49.68
58686;BME280;44465;53.206;-6.106;2023-01-27T10:52:08;103270.88;;;19.86;49.50
58686;BME280;44465;53.206;-6.106;2023-01-27T10:54:52;103230.06;;;19.65;49.98
58686;BME280;44465;53.206;-6.106;2023-01-27T10:57:36;103217.63;;;19.63;50.05
58686;BME280;44465;53.206;-6.106;2023-01-27T11:03:04;103236.28;;;19.66;49.72
58686;BME280;44465;53.206;-6.106;2023-01-27T11:06:06;103287.72;;;19.96;49.94
58686;BME280;44465;53.206;-6.106;2023-01-27T11:08:36;103291.22;;;19.98;49.49
58686;BME280;44465;53.206;-6.106;2023-01-27T11:11:06;103225.69;;;19.60;49.77
58686;BME280;44465;53.206;-6.106;2023-01-27T11:13:57;103264.66;;;19.79;49.71
58686;BME280;44465;53.206;-6.106;2023-01-27T11:16:30;103215.00;;;19.57;49.93
58686;BME280;44465;53.206;-6.106;2023-01-27T11:19:00;103224.72;;;19.65;49.76
58686;BME280;44465;53.206;-6.106;2023-01-27T11:21:31;103252.16;;;19.84;49.65
58686;BME280;44465;53.206;-6.106;2023-01-27T11:24:10;103267.28;;;19.90;49.83
58686;BME280;44465;53.206;-6.106;2023-01-27T11:26:43;103229.19;;;19.65;49.81
58686;BME280;44465;53.206;-6.106;2023-01-27T11:29:18;103328.75;;;19.92;48.89
58686;BME280;44465;53.206;-6.106;2023-01-27T11:36:52;103247.00;;;19.64;49.53
58686;BME280;44465;53.206;-6.106;2023-01-27T11:39:18;103310.81;;;20.03;49.52
58686;BME280;44465;53.206;-6.106;2023-01-27T11:41:53;103343.59;;;20.21;49.34
58686;BME280;44465;53.206;-6.106;2023-01-27T11:44:26;103258.53;;;19.71;49.35
58686;BME280;44465;53.206;-6.106;2023-01-27T11:46:53;103271.78;;;19.80;49.42
58686;BME280;44465;53.206;-6.106;2023-01-27T11:49:27;103345.34;;;20.23;49.71
58686;BME280;44465;53.206;-6.106;2023-01-27T11:52:14;103256.69;;;19.75;49.53
58686;BME280;44465;53.206;-6.106;2023-01-27T11:54:43;103336.44;;;20.23;49.60
58686;BME280;44465;53.206;-6.106;2023-01-27T11:57:17;103254.94;;;19.74;49.29
58686;BME280;44465;53.206;-6.106;2023-01-27T11:59:44;103344.44;;;20.24;49.56
58686;BME280;44465;53.206;-6.106;2023-01-27T12:02:43;103279.75;;;19.85;49.44
58686;BME280;44465;53.206;-6.106;2023-01-27T12:05:16;103225.69;;;19.57;49.41
58686;BME280;44465;53.206;-6.106;2023-01-27T12:07:57;103301.88;;;20.04;49.44
58686;BME280;44465;53.206;-6.106;2023-01-27T12:10:32;103234.53;;;19.63;49.58
58686;BME280;44465;53.206;-6.106;2023-01-27T12:13:08;103339.97;;;20.26;49.49
58686;BME280;44465;53.206;-6.106;2023-01-27T12:15:47;103262.88;;;19.81;49.72
58686;BME280;44465;53.206;-6.106;2023-01-27T12:18:14;103335.47;;;20.28;49.54
58686;BME280;44465;53.206;-6.106;2023-01-27T12:20:45;103264.66;;;19.82;49.56
58686;BME280;44465;53.206;-6.106;2023-01-27T12:23:27;103344.44;;;20.26;49.58
58686;BME280;44465;53.206;-6.106;2023-01-27T12:25:58;103320.34;;;20.24;49.35
58686;BME280;44465;53.206;-6.106;2023-01-27T12:28:41;103301.81;;;20.09;49.37
58686;BME280;44465;53.206;-6.106;2023-01-27T12:31:10;103295.59;;;20.07;49.80
58686;BME280;44465;53.206;-6.106;2023-01-27T12:33:41;103257.44;;;19.91;49.83
58686;BME280;44465;53.206;-6.106;2023-01-27T12:36:20;103225.47;;;19.78;49.48
58686;BME280;44465;53.206;-6.106;2023-01-27T12:38:57;103284.66;;;20.27;49.88
58686;BME280;44465;53.206;-6.106;2023-01-27T12:41:30;103234.88;;;20.13;50.35
58686;BME280;44465;53.206;-6.106;2023-01-27T12:46:28;103214.34;;;20.15;50.34
58686;BME280;44465;53.206;-6.106;2023-01-27T12:49:08;103248.91;;;20.31;50.45
58686;BME280;44465;53.206;-6.106;2023-01-27T12:51:39;103217.81;;;20.24;51.20
58686;BME280;44465;53.206;-6.106;2023-01-27T12:54:20;103247.69;;;20.55;50.47
58686;BME280;44465;53.206;-6.106;2023-01-27T12:56:47;103237.25;;;20.38;49.56
58686;BME280;44465;53.206;-6.106;2023-01-27T12:59:14;103194.59;;;20.26;49.63
58686;BME280;44465;53.206;-6.106;2023-01-27T13:01:42;103179.47;;;20.22;49.45
58686;BME280;44465;53.206;-6.106;2023-01-27T13:04:16;103213.97;;;20.43;49.73
58686;BME280;44465;53.206;-6.106;2023-01-27T13:06:48;103258.16;;;20.72;50.00
58686;BME280;44465;53.206;-6.106;2023-01-27T13:09:53;103254.59;;;20.70;49.87
58686;BME280;44465;53.206;-6.106;2023-01-27T13:12:27;103170.56;;;20.23;50.01
58686;BME280;44465;53.206;-6.106;2023-01-27T13:14:56;103182.03;;;20.31;49.82
58686;BME280;44465;53.206;-6.106;2023-01-27T13:23:05;103247.53;;;20.66;49.13
58686;BME280;44465;53.206;-6.106;2023-01-27T13:25:38;103240.44;;;20.62;49.46
58686;BME280;44465;53.206;-6.106;2023-01-27T13:28:12;103241.25;;;20.69;49.55
58686;BME280;44465;53.206;-6.106;2023-01-27T13:30:42;103185.53;;;20.36;49.65
58686;BME280;44465;53.206;-6.106;2023-01-27T13:33:25;103230.56;;;20.66;49.59
58686;BME280;44465;53.206;-6.106;2023-01-27T13:36:03;103222.56;;;20.64;49.75
58686;BME280;44465;53.206;-6.106;2023-01-27T13:38:59;103223.47;;;20.63;49.55
58686;BME280;44465;53.206;-6.106;2023-01-27T13:41:54;103230.56;;;20.66;49.65
58686;BME280;44465;53.206;-6.106;2023-01-27T13:47:00;103210.13;;;20.60;49.64
58686;BME280;44465;53.206;-6.106;2023-01-27T13:49:35;103196.06;;;20.49;49.81
58686;BME280;44465;53.206;-6.106;2023-01-27T13:52:04;103218.22;;;20.55;49.71
58686;BME280;44465;53.206;-6.106;2023-01-27T13:54:30;103172.25;;;20.28;49.58
58686;BME280;44465;53.206;-6.106;2023-01-27T14:02:56;103214.66;;;20.56;49.59
58686;BME280;44465;53.206;-6.106;2023-01-27T14:05:47;103210.19;;;20.57;49.69
58686;BME280;44465;53.206;-6.106;2023-01-27T14:11:24;103197.72;;;20.56;49.41
58686;BME280;44465;53.206;-6.106;2023-01-27T14:14:32;103211.97;;;20.58;49.42
58686;BME280;44465;53.206;-6.106;2023-01-27T14:17:50;103201.41;;;20.49;49.46
58686;BME280;44465;53.206;-6.106;2023-01-27T14:20:36;103200.41;;;20.54;49.51